Aviation Digital Data Service (ADDS)

Output produced by METARs form (1631 UTC 16 June 2019)
found at http://www.aviationweather.gov/metar/data/
 
Forecast for: VYMD (MANDALAY , MM)
Text: TAF VYMD 161100Z 1612/1712 17010KT 6000 BKN020 FEW025CB
Forecast period: 1200 UTC 16 June 2019 to 1200 UTC 17 June 2019
Forecast type: FROM: standard forecast or significant change
Winds: from the S (170 degrees) at 12 MPH (10 knots; 5.1 m/s)
Visibility: 4 miles (6 km)
Ceiling: 2000 feet AGL
Clouds: broken clouds at 2000 feet AGL
few clouds at 2500 feet AGL
Weather: no significant weather forecast for this period
Text: TEMPO 1612/1618 14012G25KT 6000 BKN020 FEW025CB FEW110
Forecast period: 1200 to 1800 UTC 16 June 2019
Forecast type: TEMPORARY: The following changes expected for less than half the time period
Winds: from the SE (140 degrees) at 14 MPH (12 knots; 6.2 m/s)
gusting to 29 MPH (25 knots; 12.9 m/s)
Visibility: 4 miles (6 km)
Ceiling: 2000 feet AGL
Clouds: broken clouds at 2000 feet AGL
few clouds at 2500 feet AGL
few clouds at 11000 feet AGL
Weather: no significant weather forecast for this period